createdAt,value
2018-12-31T00:02:19.757Z,41.95
2018-12-31T00:04:50.261Z,41.99
2018-12-31T00:07:20.819Z,42.00
2018-12-31T00:09:51.365Z,42.00
2018-12-31T00:12:21.870Z,42.02
2018-12-31T00:14:52.297Z,42.03
2018-12-31T00:17:22.817Z,42.08
2018-12-31T00:19:53.257Z,42.09
2018-12-31T00:22:24.484Z,42.11
2018-12-31T00:24:54.920Z,42.12
2018-12-31T00:27:25.339Z,42.13
2018-12-31T00:29:55.774Z,42.11
2018-12-31T00:32:26.210Z,42.11
2018-12-31T00:34:56.667Z,42.10
2018-12-31T00:37:27.017Z,42.07
2018-12-31T00:39:57.441Z,42.12
2018-12-31T00:42:27.832Z,42.10
2018-12-31T00:44:58.266Z,42.15
2018-12-31T00:47:28.677Z,42.16
2018-12-31T00:49:59.101Z,42.13
2018-12-31T00:52:29.524Z,42.12
2018-12-31T00:54:59.940Z,42.19
2018-12-31T00:57:30.324Z,42.19
2018-12-31T01:00:00.680Z,42.15
2018-12-31T01:02:31.106Z,42.19
2018-12-31T01:05:01.563Z,42.21
2018-12-31T01:07:32.003Z,42.23
2018-12-31T01:10:02.405Z,42.17
2018-12-31T01:12:32.836Z,42.24
2018-12-31T01:15:03.351Z,42.21
2018-12-31T01:17:33.767Z,42.26
2018-12-31T01:20:04.207Z,42.33
2018-12-31T01:22:34.631Z,42.29
2018-12-31T01:25:05.048Z,42.33
2018-12-31T01:27:35.409Z,42.32
2018-12-31T01:30:06.103Z,42.29
2018-12-31T01:32:36.542Z,42.27
2018-12-31T01:35:06.944Z,42.29
2018-12-31T01:37:37.337Z,42.32
2018-12-31T01:40:07.772Z,42.31
2018-12-31T01:42:38.087Z,42.30
2018-12-31T01:45:08.536Z,42.33
2018-12-31T01:47:38.893Z,42.33
2018-12-31T01:50:09.337Z,42.29
2018-12-31T01:52:39.681Z,42.35
2018-12-31T01:55:10.048Z,42.35
2018-12-31T01:57:40.452Z,42.35
2018-12-31T02:00:10.804Z,42.39
2018-12-31T02:02:41.238Z,42.38
2018-12-31T02:05:11.675Z,42.40
2018-12-31T02:07:42.110Z,42.38
2018-12-31T02:10:12.530Z,42.40
2018-12-31T02:12:42.957Z,42.39
2018-12-31T02:15:13.371Z,42.40
2018-12-31T02:17:43.807Z,42.42
2018-12-31T02:20:15.199Z,42.43
2018-12-31T02:22:45.585Z,42.42
2018-12-31T02:25:15.977Z,42.47
2018-12-31T02:27:46.370Z,42.50
2018-12-31T02:30:16.800Z,42.50
2018-12-31T02:32:47.293Z,42.50
2018-12-31T02:35:17.739Z,42.50
2018-12-31T02:37:48.107Z,42.50
2018-12-31T02:40:18.525Z,42.50
2018-12-31T02:42:48.888Z,42.45
2018-12-31T02:45:19.251Z,42.46
2018-12-31T02:47:49.641Z,42.40
2018-12-31T02:50:20.069Z,42.27
2018-12-31T02:52:50.472Z,41.97
2018-12-31T02:55:20.834Z,42.06
2018-12-31T02:57:51.252Z,41.94
2018-12-31T03:00:21.738Z,42.00
2018-12-31T03:02:52.182Z,41.99
2018-12-31T03:05:22.564Z,41.96
2018-12-31T03:07:52.968Z,41.95
2018-12-31T03:10:23.364Z,41.93
2018-12-31T03:12:53.777Z,41.85
2018-12-31T03:15:24.074Z,41.28
2018-12-31T03:17:54.403Z,40.74
2018-12-31T03:20:24.751Z,40.99
2018-12-31T03:22:55.070Z,41.01
2018-12-31T03:25:25.399Z,41.08
2018-12-31T03:27:55.753Z,41.09
2018-12-31T03:30:26.147Z,41.09
2018-12-31T03:32:56.541Z,41.11
2018-12-31T03:35:26.936Z,41.11
2018-12-31T03:37:57.340Z,41.13
2018-12-31T03:40:27.679Z,41.11
2018-12-31T03:42:58.066Z,41.11
2018-12-31T03:45:28.442Z,41.13
2018-12-31T03:47:58.830Z,41.14
2018-12-31T03:50:29.165Z,41.13
2018-12-31T03:52:59.550Z,41.14
2018-12-31T03:55:29.922Z,41.11
2018-12-31T03:58:00.361Z,41.11
2018-12-31T04:00:30.736Z,41.13
2018-12-31T04:03:01.287Z,41.09
2018-12-31T04:05:31.680Z,41.12
2018-12-31T04:08:01.986Z,41.09
2018-12-31T04:10:32.396Z,41.06
2018-12-31T04:13:03.033Z,41.08
2018-12-31T04:15:33.453Z,41.06
2018-12-31T04:18:03.744Z,41.03
2018-12-31T04:20:34.049Z,41.05
2018-12-31T04:23:04.452Z,41.04
2018-12-31T04:25:34.883Z,41.04
2018-12-31T04:28:05.235Z,41.05
2018-12-31T04:30:35.563Z,41.01
2018-12-31T04:33:05.945Z,41.03
2018-12-31T04:35:36.882Z,41.01
2018-12-31T04:38:07.262Z,41.01
2018-12-31T04:40:37.594Z,40.96
2018-12-31T04:43:08.022Z,40.96
2018-12-31T04:45:38.397Z,40.98
2018-12-31T04:48:08.743Z,40.96
2018-12-31T04:50:39.134Z,40.95
2018-12-31T04:53:09.554Z,40.93
2018-12-31T04:55:44.332Z,40.92
2018-12-31T04:58:12.097Z,40.91
2018-12-31T05:00:42.421Z,40.91
2018-12-31T05:03:12.858Z,40.91
2018-12-31T05:05:43.634Z,40.90
2018-12-31T05:08:13.962Z,40.89
2018-12-31T05:10:44.386Z,40.87
2018-12-31T05:13:15.072Z,40.84
2018-12-31T05:15:45.469Z,40.82
2018-12-31T05:18:15.857Z,40.85
2018-12-31T05:20:46.592Z,40.82
2018-12-31T05:23:16.982Z,40.85
2018-12-31T05:25:47.340Z,40.84
2018-12-31T05:28:17.749Z,40.80
2018-12-31T05:30:48.259Z,40.84
2018-12-31T05:33:18.707Z,40.85
2018-12-31T05:35:49.167Z,40.82
2018-12-31T05:38:19.522Z,40.81
2018-12-31T05:40:49.956Z,40.79
2018-12-31T05:43:20.337Z,40.81
2018-12-31T05:45:50.764Z,40.80
2018-12-31T05:48:21.159Z,40.81
2018-12-31T05:50:51.599Z,40.65
2018-12-31T05:53:21.933Z,40.49
2018-12-31T05:55:52.318Z,40.45
2018-12-31T05:58:22.737Z,40.45
2018-12-31T06:00:53.116Z,40.48
2018-12-31T06:03:23.542Z,40.49
2018-12-31T06:05:53.944Z,40.28
2018-12-31T06:08:24.284Z,40.29
2018-12-31T06:10:54.732Z,40.15
2018-12-31T06:13:25.151Z,40.01
2018-12-31T06:15:55.544Z,40.10
2018-12-31T06:18:25.871Z,40.00
2018-12-31T06:20:56.243Z,39.97
2018-12-31T06:23:26.739Z,40.01
2018-12-31T06:25:57.129Z,39.94
2018-12-31T06:28:27.525Z,39.92
2018-12-31T06:30:57.852Z,39.86
2018-12-31T06:33:28.174Z,39.83
2018-12-31T06:35:58.539Z,39.79
2018-12-31T06:38:28.922Z,39.74
2018-12-31T06:40:59.264Z,39.67
2018-12-31T06:43:29.713Z,39.56
2018-12-31T06:46:00.194Z,39.54
2018-12-31T06:48:30.502Z,39.53
2018-12-31T06:51:00.982Z,39.49
2018-12-31T06:53:31.373Z,39.55
2018-12-31T06:56:01.758Z,39.52
2018-12-31T06:58:32.079Z,39.52
2018-12-31T07:01:02.377Z,39.47
2018-12-31T07:03:33.767Z,39.41
2018-12-31T07:06:04.258Z,39.44
2018-12-31T07:08:34.877Z,39.43
2018-12-31T07:11:05.465Z,39.39
2018-12-31T07:13:36.028Z,39.42
2018-12-31T07:16:06.527Z,39.35
2018-12-31T07:18:36.886Z,39.29
2018-12-31T07:21:07.199Z,39.30
2018-12-31T07:23:37.524Z,39.27
2018-12-31T07:26:07.987Z,39.29
2018-12-31T07:28:38.359Z,39.22
2018-12-31T07:31:08.689Z,39.20
2018-12-31T07:33:39.049Z,39.17
2018-12-31T07:36:11.059Z,39.15
2018-12-31T07:38:41.489Z,39.09
2018-12-31T07:41:11.912Z,39.11
2018-12-31T07:43:46.339Z,39.06
2018-12-31T07:46:19.385Z,39.11
2018-12-31T07:48:50.126Z,39.09
2018-12-31T07:51:20.639Z,39.12
2018-12-31T07:53:51.320Z,39.10
2018-12-31T07:56:22.372Z,39.12
2018-12-31T07:58:53.327Z,39.09
2018-12-31T08:01:36.213Z,39.13
2018-12-31T08:04:14.090Z,39.12
2018-12-31T08:06:45.468Z,39.00
2018-12-31T08:09:17.622Z,39.16
2018-12-31T08:11:48.169Z,39.20
2018-12-31T08:14:20.025Z,39.01
2018-12-31T08:16:51.269Z,39.12
2018-12-31T08:19:21.774Z,39.10
2018-12-31T08:21:52.285Z,39.15
2018-12-31T08:24:23.518Z,39.08
2018-12-31T08:26:53.915Z,39.13
2018-12-31T08:29:24.638Z,39.08
2018-12-31T08:31:55.144Z,39.11
2018-12-31T08:34:25.536Z,39.12
2018-12-31T08:36:55.982Z,39.04
2018-12-31T08:39:26.394Z,38.95
2018-12-31T08:41:56.827Z,38.98
2018-12-31T08:44:27.607Z,39.04
2018-12-31T08:46:58.523Z,39.04
2018-12-31T08:49:29.240Z,39.26
2018-12-31T08:52:00.303Z,39.14
2018-12-31T08:54:30.924Z,39.21
2018-12-31T08:57:01.528Z,39.25
2018-12-31T08:59:32.018Z,39.24
2018-12-31T09:02:02.249Z,39.32
2018-12-31T09:04:33.133Z,39.25
2018-12-31T09:07:03.492Z,39.33
2018-12-31T09:09:40.852Z,39.29
2018-12-31T09:12:41.986Z,39.30
2018-12-31T09:15:14.799Z,39.35
2018-12-31T09:17:45.166Z,39.37
2018-12-31T09:20:15.512Z,39.30
2018-12-31T09:22:45.873Z,39.43
2018-12-31T09:25:16.249Z,39.39
2018-12-31T09:27:46.682Z,39.35
2018-12-31T09:30:17.160Z,39.38
2018-12-31T09:32:47.537Z,39.43
2018-12-31T09:35:17.914Z,39.33
2018-12-31T09:37:48.223Z,39.34
2018-12-31T09:40:18.679Z,39.46
2018-12-31T09:42:49.086Z,39.48
2018-12-31T09:45:23.483Z,39.41
2018-12-31T09:47:54.981Z,39.51
2018-12-31T09:50:25.343Z,39.36
2018-12-31T09:52:55.816Z,39.45
2018-12-31T09:55:26.234Z,39.37
2018-12-31T09:57:56.694Z,39.43
2018-12-31T10:00:27.089Z,39.43
2018-12-31T10:02:57.812Z,39.48
2018-12-31T10:05:30.837Z,39.43
2018-12-31T10:08:01.337Z,39.36
2018-12-31T10:10:31.887Z,39.47
2018-12-31T10:13:02.376Z,39.48
2018-12-31T10:15:32.969Z,39.33
2018-12-31T10:18:04.030Z,39.48
2018-12-31T10:20:34.488Z,39.50
2018-12-31T10:23:04.904Z,39.52
2018-12-31T10:25:35.304Z,39.47
2018-12-31T10:28:05.605Z,39.41
2018-12-31T10:30:35.971Z,39.52
2018-12-31T10:33:06.458Z,39.48
2018-12-31T10:35:36.986Z,39.50
2018-12-31T10:38:07.409Z,39.47
2018-12-31T10:40:37.745Z,39.51
2018-12-31T10:43:09.143Z,39.58
2018-12-31T10:45:39.566Z,39.57
2018-12-31T10:48:10.171Z,39.52
2018-12-31T10:50:40.557Z,39.49
2018-12-31T10:53:11.026Z,39.53
2018-12-31T10:55:41.418Z,39.53
2018-12-31T10:58:11.746Z,39.47
2018-12-31T11:00:43.733Z,39.52
2018-12-31T11:03:14.236Z,39.51
2018-12-31T11:05:44.584Z,39.52
2018-12-31T11:08:14.924Z,39.51
2018-12-31T11:10:45.309Z,39.51
2018-12-31T11:13:15.870Z,39.53
2018-12-31T11:15:46.272Z,39.53
2018-12-31T11:18:16.689Z,39.48
2018-12-31T11:20:47.076Z,39.48
2018-12-31T11:23:17.514Z,39.50
2018-12-31T11:25:47.985Z,39.47
2018-12-31T11:28:17.891Z,39.48
2018-12-31T11:30:48.134Z,39.46
2018-12-31T11:33:18.710Z,39.45
2018-12-31T11:35:49.497Z,39.45
2018-12-31T11:38:19.745Z,39.46
2018-12-31T11:40:49.993Z,39.44
2018-12-31T11:43:20.337Z,39.39
2018-12-31T11:45:50.857Z,39.40
2018-12-31T11:48:39.412Z,39.41
2018-12-31T11:51:13.153Z,39.42
2018-12-31T11:53:45.309Z,39.41
2018-12-31T11:56:15.688Z,39.45
2018-12-31T11:58:45.932Z,39.47
2018-12-31T12:01:16.352Z,39.51
2018-12-31T12:03:46.682Z,39.53
2018-12-31T12:06:17.010Z,39.56
2018-12-31T12:08:47.420Z,39.59
2018-12-31T12:11:17.905Z,39.62
2018-12-31T12:13:48.320Z,39.57
2018-12-31T12:16:18.715Z,39.64
2018-12-31T12:18:49.049Z,39.63
2018-12-31T12:21:19.342Z,39.66
2018-12-31T12:23:49.704Z,39.64
2018-12-31T12:26:19.926Z,39.66
2018-12-31T12:28:50.186Z,39.69
2018-12-31T12:31:20.972Z,39.68
2018-12-31T12:33:51.554Z,39.69
2018-12-31T12:36:22.087Z,39.69
2018-12-31T12:38:52.345Z,39.69
2018-12-31T12:41:22.614Z,39.66
2018-12-31T12:43:54.115Z,39.67
2018-12-31T12:46:24.394Z,39.69
2018-12-31T12:48:55.763Z,39.72
2018-12-31T12:51:26.064Z,39.76
2018-12-31T12:56:24.949Z,39.86
2018-12-31T12:58:55.433Z,39.84
2018-12-31T13:01:26.097Z,39.87
2018-12-31T13:03:57.423Z,40.04
2018-12-31T13:06:27.676Z,40.18
2018-12-31T13:08:57.997Z,40.23
2018-12-31T13:11:28.271Z,40.13
2018-12-31T13:13:58.500Z,40.13
2018-12-31T13:16:28.856Z,40.21
2018-12-31T13:18:59.220Z,40.26
2018-12-31T13:21:29.456Z,40.24
2018-12-31T13:23:59.714Z,40.24
2018-12-31T13:26:30.046Z,40.26
2018-12-31T13:29:00.389Z,40.21
2018-12-31T13:31:30.685Z,40.32
2018-12-31T13:34:00.963Z,40.24
2018-12-31T13:36:31.607Z,40.11
2018-12-31T13:39:01.906Z,39.98
2018-12-31T13:41:33.290Z,39.77
2018-12-31T13:44:03.578Z,39.65
2018-12-31T13:46:33.890Z,39.78
2018-12-31T13:49:04.224Z,39.82
2018-12-31T13:51:34.507Z,39.64
2018-12-31T13:54:04.756Z,39.69
2018-12-31T13:56:35.044Z,39.48
2018-12-31T13:59:05.299Z,39.52
2018-12-31T14:01:35.564Z,39.64
2018-12-31T14:04:09.447Z,39.58
2018-12-31T14:06:39.886Z,39.62
2018-12-31T14:09:10.236Z,39.58
2018-12-31T14:11:40.751Z,39.73
2018-12-31T14:14:11.711Z,39.72
2018-12-31T14:16:42.013Z,39.80
2018-12-31T14:19:12.255Z,39.80
2018-12-31T14:21:42.492Z,39.93
2018-12-31T14:24:12.843Z,39.93
2018-12-31T14:26:43.527Z,39.84
2018-12-31T14:29:15.936Z,39.58
2018-12-31T14:31:46.177Z,39.64
2018-12-31T14:34:16.441Z,39.58
2018-12-31T14:36:46.746Z,39.61
2018-12-31T14:39:17.125Z,39.61
2018-12-31T14:41:47.363Z,39.67
2018-12-31T14:44:17.696Z,39.61
2018-12-31T14:46:48.058Z,39.53
2018-12-31T14:49:18.370Z,39.38
2018-12-31T14:51:48.610Z,39.41
2018-12-31T14:54:18.848Z,39.46
2018-12-31T14:56:49.170Z,39.52
2018-12-31T14:59:19.749Z,39.57
2018-12-31T15:01:50.063Z,39.61
2018-12-31T15:04:20.283Z,39.65
2018-12-31T15:06:50.601Z,39.64
2018-12-31T15:09:21.182Z,39.63
2018-12-31T15:11:51.550Z,39.58
2018-12-31T15:14:21.849Z,39.40
2018-12-31T15:16:52.155Z,39.24
2018-12-31T15:19:22.417Z,39.13
2018-12-31T15:21:53.067Z,39.15
2018-12-31T15:24:23.383Z,39.07
2018-12-31T15:26:53.701Z,39.16
2018-12-31T15:29:25.030Z,39.22
2018-12-31T15:31:55.270Z,39.24
2018-12-31T15:34:25.543Z,39.18
2018-12-31T15:36:55.763Z,39.19
2018-12-31T15:39:26.066Z,39.21
2018-12-31T15:41:56.435Z,39.09
2018-12-31T15:44:26.695Z,38.80
2018-12-31T15:46:57.002Z,38.78
2018-12-31T15:49:27.240Z,38.71
2018-12-31T15:51:57.514Z,38.75
2018-12-31T15:54:27.784Z,38.70
2018-12-31T15:56:58.301Z,38.69
2018-12-31T15:59:28.643Z,38.67
2018-12-31T16:01:58.903Z,38.70
2018-12-31T16:04:29.110Z,38.67
2018-12-31T16:06:59.350Z,38.69
2018-12-31T16:09:29.608Z,38.71
2018-12-31T16:11:59.831Z,38.67
2018-12-31T16:14:30.995Z,38.69
2018-12-31T16:17:01.296Z,38.67
2018-12-31T16:19:31.912Z,38.67
2018-12-31T16:22:02.158Z,38.67
2018-12-31T16:24:33.476Z,38.63
2018-12-31T16:27:03.782Z,38.63
2018-12-31T16:29:34.146Z,38.63
2018-12-31T16:32:04.371Z,38.62
2018-12-31T16:34:34.710Z,38.59
2018-12-31T16:37:05.015Z,38.54
2018-12-31T16:39:35.445Z,38.49
2018-12-31T16:42:06.174Z,38.42
2018-12-31T16:44:37.449Z,38.45
2018-12-31T16:47:07.912Z,38.47
2018-12-31T16:49:38.279Z,38.49
2018-12-31T16:52:10.072Z,38.42
2018-12-31T16:54:40.316Z,38.43
2018-12-31T16:57:10.646Z,38.45
2018-12-31T16:59:41.012Z,38.33
2018-12-31T17:02:11.229Z,38.34
2018-12-31T17:04:41.855Z,38.38
2018-12-31T17:07:12.149Z,37.86
2018-12-31T17:09:42.475Z,37.75
2018-12-31T17:12:12.694Z,38.03
2018-12-31T17:14:43.246Z,38.21
2018-12-31T17:17:13.918Z,38.29
2018-12-31T17:19:44.188Z,38.28
2018-12-31T17:22:14.480Z,38.34
2018-12-31T17:24:44.750Z,38.17
2018-12-31T17:27:14.982Z,37.17
2018-12-31T17:29:45.238Z,37.42
2018-12-31T17:32:15.475Z,37.39
2018-12-31T17:34:46.058Z,37.50
2018-12-31T17:37:16.367Z,37.48
2018-12-31T17:39:48.142Z,37.48
2018-12-31T17:42:18.467Z,37.48
2018-12-31T17:44:48.804Z,37.48
2018-12-31T17:47:21.262Z,37.55
2018-12-31T17:49:51.550Z,37.56
2018-12-31T17:52:21.794Z,37.56
2018-12-31T17:54:52.039Z,37.63
2018-12-31T17:57:22.281Z,36.69
2018-12-31T17:59:52.517Z,33.01
2018-12-31T18:02:23.806Z,34.57
2018-12-31T18:04:54.165Z,35.93
2018-12-31T18:07:24.388Z,36.27
2018-12-31T18:09:55.062Z,36.44
2018-12-31T18:12:25.272Z,36.64
2018-12-31T18:14:55.789Z,36.68
2018-12-31T18:17:26.019Z,36.75
2018-12-31T18:19:56.289Z,36.77
2018-12-31T18:22:26.536Z,36.82
2018-12-31T18:24:57.124Z,36.85
2018-12-31T18:27:27.373Z,36.88
2018-12-31T18:29:57.589Z,36.88
2018-12-31T18:32:27.839Z,36.94
2018-12-31T18:34:58.168Z,36.97
2018-12-31T18:37:28.710Z,36.97
2018-12-31T18:39:58.959Z,36.99
2018-12-31T18:42:29.191Z,37.05
2018-12-31T18:44:59.416Z,37.05
2018-12-31T18:47:29.637Z,37.06
2018-12-31T18:50:00.330Z,37.07
2018-12-31T18:52:30.616Z,37.10
2018-12-31T18:55:00.959Z,37.14
2018-12-31T18:57:31.173Z,37.14
2018-12-31T19:00:01.439Z,37.13
2018-12-31T19:02:31.671Z,37.17
2018-12-31T19:05:01.964Z,37.17
2018-12-31T19:07:32.291Z,37.18
2018-12-31T19:10:02.583Z,37.22
2018-12-31T19:12:33.194Z,37.23
2018-12-31T19:15:03.423Z,37.23
2018-12-31T19:17:33.652Z,37.21
2018-12-31T19:20:04.015Z,37.24
2018-12-31T19:22:34.361Z,37.28
2018-12-31T19:25:04.586Z,37.26
2018-12-31T19:27:34.831Z,37.26
2018-12-31T19:30:05.108Z,37.28
2018-12-31T19:32:35.344Z,37.29
2018-12-31T19:35:05.970Z,37.29
2018-12-31T19:37:36.251Z,37.33
2018-12-31T19:40:06.614Z,37.35
2018-12-31T19:42:36.864Z,37.38
2018-12-31T19:45:07.083Z,37.34
2018-12-31T19:47:37.691Z,37.34
2018-12-31T19:50:07.919Z,37.37
2018-12-31T19:52:38.306Z,37.37
2018-12-31T19:55:08.530Z,37.34
2018-12-31T19:57:38.769Z,37.38
2018-12-31T20:00:09.489Z,37.38
2018-12-31T20:02:39.731Z,37.41
2018-12-31T20:05:09.975Z,37.43
2018-12-31T20:07:40.269Z,37.42
2018-12-31T20:10:10.479Z,37.39
2018-12-31T20:12:40.722Z,37.42
2018-12-31T20:15:10.945Z,37.42
2018-12-31T20:17:41.170Z,37.41
2018-12-31T20:20:11.392Z,37.43
2018-12-31T20:22:41.727Z,37.42
2018-12-31T20:25:11.979Z,37.47
2018-12-31T20:27:42.198Z,37.49
2018-12-31T20:30:12.470Z,37.52
2018-12-31T20:32:42.689Z,37.48
2018-12-31T20:35:13.015Z,37.51
2018-12-31T20:37:43.304Z,37.50
2018-12-31T20:40:13.589Z,37.48
2018-12-31T20:42:43.827Z,37.51
2018-12-31T20:45:14.072Z,37.52
2018-12-31T20:47:44.407Z,37.51
2018-12-31T20:50:14.635Z,37.55
2018-12-31T20:52:44.874Z,37.53
2018-12-31T20:55:15.159Z,37.56
2018-12-31T20:57:45.407Z,37.51
2018-12-31T21:00:15.623Z,37.49
2018-12-31T21:02:45.869Z,37.50
2018-12-31T21:05:16.091Z,37.49
2018-12-31T21:07:46.379Z,37.48
2018-12-31T21:10:16.655Z,37.48
2018-12-31T21:12:47.316Z,37.47
2018-12-31T21:15:17.574Z,37.51
2018-12-31T21:17:47.783Z,37.50
2018-12-31T21:20:18.042Z,37.51
2018-12-31T21:22:49.336Z,37.48
2018-12-31T21:25:19.592Z,37.47
2018-12-31T21:27:49.846Z,37.48
2018-12-31T21:30:20.400Z,37.49
2018-12-31T21:32:50.619Z,37.49
2018-12-31T21:35:20.875Z,37.47
2018-12-31T21:37:51.098Z,37.44
2018-12-31T21:40:21.466Z,37.40
2018-12-31T21:42:51.688Z,37.44
2018-12-31T21:45:21.949Z,37.45
2018-12-31T21:47:52.265Z,37.47
2018-12-31T21:50:22.520Z,37.43
2018-12-31T21:52:52.756Z,37.46
2018-12-31T21:55:23.039Z,37.42
2018-12-31T21:57:53.354Z,37.45
2018-12-31T22:00:23.878Z,37.48
2018-12-31T22:02:57.135Z,37.49
2018-12-31T22:05:26.128Z,37.45
2018-12-31T22:07:56.427Z,37.46
2018-12-31T22:10:26.743Z,37.48
2018-12-31T22:12:56.987Z,37.48
2018-12-31T22:15:27.232Z,37.48
2018-12-31T22:17:57.579Z,37.49
2018-12-31T22:20:27.799Z,37.49
2018-12-31T22:22:58.049Z,37.50
2018-12-31T22:25:28.263Z,37.49
2018-12-31T22:27:58.521Z,37.49
2018-12-31T22:30:28.765Z,37.51
2018-12-31T22:32:58.998Z,37.51
2018-12-31T22:35:29.420Z,37.51
2018-12-31T22:37:59.655Z,37.53
2018-12-31T22:40:30.628Z,37.54
2018-12-31T22:43:00.942Z,37.55
2018-12-31T22:45:31.182Z,37.58
2018-12-31T22:48:01.611Z,37.50
2018-12-31T22:50:31.935Z,37.44
2018-12-31T22:53:02.210Z,37.46
2018-12-31T22:55:32.446Z,37.46
2018-12-31T22:58:02.662Z,37.40
2018-12-31T23:00:32.956Z,37.44
2018-12-31T23:03:03.485Z,37.48
2018-12-31T23:05:36.371Z,37.50
2018-12-31T23:08:07.768Z,37.50
2018-12-31T23:10:37.991Z,37.54
2018-12-31T23:13:08.227Z,37.59
2018-12-31T23:15:39.883Z,37.61
2018-12-31T23:18:10.776Z,37.63
2018-12-31T23:20:41.108Z,37.62
2018-12-31T23:23:11.505Z,37.67
2018-12-31T23:25:41.766Z,37.63
2018-12-31T23:28:12.084Z,37.62
2018-12-31T23:30:42.443Z,37.60
2018-12-31T23:33:13.074Z,37.62
2018-12-31T23:35:43.320Z,37.63
2018-12-31T23:38:13.751Z,37.65
2018-12-31T23:40:44.119Z,37.62
2018-12-31T23:43:14.396Z,37.57
2018-12-31T23:45:44.760Z,37.43
2018-12-31T23:48:15.010Z,37.34
2018-12-31T23:50:45.295Z,37.36
2018-12-31T23:53:15.546Z,37.48
2018-12-31T23:55:45.774Z,37.24
2018-12-31T23:58:16.024Z,36.80
